Billings, MT

10:43 PM MDT on September 19, 2014 (GMT -0600)
South of Castle Rock Park | Change Station
CLOSE
Current Station
Personal Weather Station
Location: Billings, MT
Elevation: 3297 ft
Nearby Weather Stations

Elev 3297 ft 45.82 °N, 108.50 °W | Updated 3 minutes ago

Clear
Clear
64.4 °F
Feels Like 64.4 °F
N
1.1
Wind Variable Wind from West
Gusts 1.1 mph

Today
High -- | Low -- °F
--% Chance of Precip.
Yesterday
High -- | Low -- °F
Precip. -- in
6:57 AM 7:17 PM
Waning Crescent, 14% visible
Pressure 29.95 in
Visibility 10.0 miles
Clouds Few 10000 ft
Dew Point 45 °F
Humidity 50%
Rainfall 0.00 in
Snow Depth 0 in , 1 in , 0 in
UV 0 out of 12
Pollen 5.30 out of 12
Air Quality Not available.
Flu Activity Not available.
METAR KBIL 200353Z 30006KT 10SM FEW100 16/07 A3000 RMK AO2 SLP141 T01560072

More Conditions Fewer Conditions

Pressure 29.95 in
Visibility 10.0 miles
Clouds Few 10000 ft
Dew Point 45 °F
Humidity 50%
Rainfall 0.00 in
Snow Depth 0 in , 1 in , 0 in
UV 0 out of 12
Pollen 5.30 out of 12
Air Quality Not available.
Flu Activity Not available.
METAR KBIL 200353Z 30006KT 10SM FEW100 16/07 A3000 RMK AO2 SLP141 T01560072

More Conditions Fewer Conditions

10-Day Weather Forecast

Almanac

Astronomy

Sep. 19, 2014 Rise Set
Actual Time 6:57 AM MDT 7:17 PM MDT
Civil Twilight 6:27 AM MDT 7:46 PM MDT
Nautical Twilight 5:52 AM MDT 8:21 PM MDT
Astronomical Twilight 5:16 AM MDT 8:58 PM MDT
Moon 2:34 AM MDT (9/19) 4:56 PM MDT (9/19)
Length of Visible Light 13h 19m
Length of Day
12h 19m
Tomorrow will be 3m 11s shorter.
Waning Crescent, 14% of the Moon is Illuminated
Sep 20
Waning Crescent
Sep 24
New
Oct 1
First Quarter
Oct 8
Full
Oct 15
Last Quarter

Yesterday's Extremes

State Highs State Lows

Community

WunderPhotos

Upload Photos

1,754,777 photos uploaded!

WunderBlogs® & News

Nearby

Snow Depth

Station Depth Elevation
Brackett Creek 0 in 7320 ft
Waldron 1 in 5600 ft
Stuart Mountain 0 in 7400 ft
Short Creek 0 in 7000 ft
Badger Pass 1 in 6900 ft

Earthquake Activity

City Distance Mag. Time & Date
No recent earthquake activity has been reported nearby.
Minimum magnitude displayed is 2.5.

Coastal Water Temperatures

Place Temperature
No Stations Reporting

Nearby Weather Stations